sensor_id;sensor_type;location;lat;lon;timestamp;P1;durP1;ratioP1;P2;durP2;ratioP2
76094;SDS011;64821;13.710;100.604;2023-05-10T00:00:27;23.50;;;16.40;;
76094;SDS011;64821;13.710;100.604;2023-05-10T00:01:30;23.63;;;17.38;;
76094;SDS011;64821;13.710;100.604;2023-05-10T00:02:36;24.42;;;16.95;;
76094;SDS011;64821;13.710;100.604;2023-05-10T00:03:40;22.42;;;14.90;;
76094;SDS011;64821;13.710;100.604;2023-05-10T00:04:44;22.73;;;14.55;;
76094;SDS011;64821;13.710;100.604;2023-05-10T00:05:47;19.90;;;14.07;;
76094;SDS011;64821;13.710;100.604;2023-05-10T00:06:51;20.13;;;13.85;;
76094;SDS011;64821;13.710;100.604;2023-05-10T00:07:55;20.67;;;14.88;;
76094;SDS011;64821;13.710;100.604;2023-05-10T00:08:58;21.00;;;14.05;;
76094;SDS011;64821;13.710;100.604;2023-05-10T00:10:02;19.98;;;13.30;;
76094;SDS011;64821;13.710;100.604;2023-05-10T00:11:06;20.30;;;14.93;;
76094;SDS011;64821;13.710;100.604;2023-05-10T00:12:10;19.88;;;14.90;;
76094;SDS011;64821;13.710;100.604;2023-05-10T00:13:14;22.67;;;15.20;;
76094;SDS011;64821;13.710;100.604;2023-05-10T00:14:17;20.35;;;14.27;;
76094;SDS011;64821;13.710;100.604;2023-05-10T00:15:21;21.92;;;14.75;;
76094;SDS011;64821;13.710;100.604;2023-05-10T00:16:25;18.77;;;13.20;;
76094;SDS011;64821;13.710;100.604;2023-05-10T00:17:29;22.08;;;14.30;;
76094;SDS011;64821;13.710;100.604;2023-05-10T00:18:34;19.02;;;13.60;;
76094;SDS011;64821;13.710;100.604;2023-05-10T00:19:38;20.08;;;14.63;;
76094;SDS011;64821;13.710;100.604;2023-05-10T00:20:42;21.17;;;14.45;;
76094;SDS011;64821;13.710;100.604;2023-05-10T00:21:45;18.33;;;13.43;;
76094;SDS011;64821;13.710;100.604;2023-05-10T00:22:49;18.63;;;12.82;;
76094;SDS011;64821;13.710;100.604;2023-05-10T00:23:53;19.45;;;13.68;;
76094;SDS011;64821;13.710;100.604;2023-05-10T00:24:57;19.13;;;13.32;;
76094;SDS011;64821;13.710;100.604;2023-05-10T00:26:00;20.90;;;13.70;;
76094;SDS011;64821;13.710;100.604;2023-05-10T00:27:04;19.20;;;13.67;;
76094;SDS011;64821;13.710;100.604;2023-05-10T00:28:08;18.73;;;12.80;;
76094;SDS011;64821;13.710;100.604;2023-05-10T00:29:11;20.67;;;13.68;;
76094;SDS011;64821;13.710;100.604;2023-05-10T00:30:15;20.33;;;12.48;;
76094;SDS011;64821;13.710;100.604;2023-05-10T00:31:19;20.55;;;13.70;;
76094;SDS011;64821;13.710;100.604;2023-05-10T00:32:23;21.37;;;13.63;;
76094;SDS011;64821;13.710;100.604;2023-05-10T00:33:27;19.42;;;12.60;;
76094;SDS011;64821;13.710;100.604;2023-05-10T00:34:33;20.58;;;13.20;;
76094;SDS011;64821;13.710;100.604;2023-05-10T00:35:36;19.42;;;12.65;;
76094;SDS011;64821;13.710;100.604;2023-05-10T00:36:40;18.50;;;12.23;;
76094;SDS011;64821;13.710;100.604;2023-05-10T00:37:44;21.87;;;13.43;;
76094;SDS011;64821;13.710;100.604;2023-05-10T00:38:48;20.45;;;13.82;;
76094;SDS011;64821;13.710;100.604;2023-05-10T00:39:51;20.20;;;13.55;;
76094;SDS011;64821;13.710;100.604;2023-05-10T00:40:55;20.23;;;13.70;;
76094;SDS011;64821;13.710;100.604;2023-05-10T00:41:59;19.70;;;13.75;;
76094;SDS011;64821;13.710;100.604;2023-05-10T00:43:02;19.07;;;13.10;;
76094;SDS011;64821;13.710;100.604;2023-05-10T00:44:06;20.95;;;12.70;;
76094;SDS011;64821;13.710;100.604;2023-05-10T00:45:10;19.00;;;12.88;;
76094;SDS011;64821;13.710;100.604;2023-05-10T00:46:14;17.15;;;11.65;;
76094;SDS011;64821;13.710;100.604;2023-05-10T00:47:18;17.63;;;11.20;;
76094;SDS011;64821;13.710;100.604;2023-05-10T00:48:22;18.53;;;11.93;;
76094;SDS011;64821;13.710;100.604;2023-05-10T00:49:26;15.48;;;10.85;;
76094;SDS011;64821;13.710;100.604;2023-05-10T00:50:32;18.10;;;11.98;;
76094;SDS011;64821;13.710;100.604;2023-05-10T00:51:37;16.23;;;10.80;;
76094;SDS011;64821;13.710;100.604;2023-05-10T00:52:41;18.13;;;11.35;;
76094;SDS011;64821;13.710;100.604;2023-05-10T00:53:45;14.80;;;10.10;;
76094;SDS011;64821;13.710;100.604;2023-05-10T00:54:49;16.08;;;11.05;;
76094;SDS011;64821;13.710;100.604;2023-05-10T00:55:54;16.42;;;11.07;;
76094;SDS011;64821;13.710;100.604;2023-05-10T00:56:58;15.20;;;9.68;;
76094;SDS011;64821;13.710;100.604;2023-05-10T00:58:02;15.77;;;10.27;;
76094;SDS011;64821;13.710;100.604;2023-05-10T00:59:06;15.63;;;9.73;;
76094;SDS011;64821;13.710;100.604;2023-05-10T01:00:11;16.42;;;9.73;;
76094;SDS011;64821;13.710;100.604;2023-05-10T01:01:16;14.10;;;9.48;;
76094;SDS011;64821;13.710;100.604;2023-05-10T01:02:20;13.75;;;9.57;;
76094;SDS011;64821;13.710;100.604;2023-05-10T01:03:24;15.13;;;9.90;;
76094;SDS011;64821;13.710;100.604;2023-05-10T01:04:28;14.87;;;9.90;;
76094;SDS011;64821;13.710;100.604;2023-05-10T01:05:34;17.02;;;10.48;;
76094;SDS011;64821;13.710;100.604;2023-05-10T01:06:38;14.35;;;9.60;;
76094;SDS011;64821;13.710;100.604;2023-05-10T01:07:41;13.52;;;9.77;;
76094;SDS011;64821;13.710;100.604;2023-05-10T01:08:45;12.93;;;9.25;;
76094;SDS011;64821;13.710;100.604;2023-05-10T01:09:49;14.17;;;10.00;;
76094;SDS011;64821;13.710;100.604;2023-05-10T01:10:53;13.25;;;8.90;;
76094;SDS011;64821;13.710;100.604;2023-05-10T01:11:57;15.13;;;9.32;;
76094;SDS011;64821;13.710;100.604;2023-05-10T01:13:02;14.73;;;10.38;;
76094;SDS011;64821;13.710;100.604;2023-05-10T01:14:06;13.35;;;9.40;;
76094;SDS011;64821;13.710;100.604;2023-05-10T01:15:11;14.57;;;9.70;;
76094;SDS011;64821;13.710;100.604;2023-05-10T01:16:16;12.35;;;8.80;;
76094;SDS011;64821;13.710;100.604;2023-05-10T01:17:20;13.90;;;9.13;;
76094;SDS011;64821;13.710;100.604;2023-05-10T01:18:25;13.50;;;9.32;;
76094;SDS011;64821;13.710;100.604;2023-05-10T01:19:30;14.70;;;9.57;;
76094;SDS011;64821;13.710;100.604;2023-05-10T01:20:40;14.27;;;9.67;;
76094;SDS011;64821;13.710;100.604;2023-05-10T01:21:53;14.73;;;9.52;;
76094;SDS011;64821;13.710;100.604;2023-05-10T01:24:40;13.13;;;8.57;;
76094;SDS011;64821;13.710;100.604;2023-05-10T01:26:14;14.20;;;9.63;;
76094;SDS011;64821;13.710;100.604;2023-05-10T01:29:48;12.60;;;8.90;;
76094;SDS011;64821;13.710;100.604;2023-05-10T01:31:26;13.43;;;8.73;;
76094;SDS011;64821;13.710;100.604;2023-05-10T01:32:45;13.70;;;9.27;;
76094;SDS011;64821;13.710;100.604;2023-05-10T01:33:57;14.90;;;9.32;;
76094;SDS011;64821;13.710;100.604;2023-05-10T01:35:05;16.50;;;10.20;;
76094;SDS011;64821;13.710;100.604;2023-05-10T01:36:15;14.90;;;9.85;;
76094;SDS011;64821;13.710;100.604;2023-05-10T01:37:28;13.23;;;10.00;;
76094;SDS011;64821;13.710;100.604;2023-05-10T01:38:41;13.30;;;9.40;;
76094;SDS011;64821;13.710;100.604;2023-05-10T01:39:51;14.52;;;10.20;;
76094;SDS011;64821;13.710;100.604;2023-05-10T01:41:03;13.07;;;9.00;;
76094;SDS011;64821;13.710;100.604;2023-05-10T01:42:16;15.27;;;9.20;;
76094;SDS011;64821;13.710;100.604;2023-05-10T01:43:25;15.00;;;10.50;;
76094;SDS011;64821;13.710;100.604;2023-05-10T01:44:34;13.93;;;9.55;;
76094;SDS011;64821;13.710;100.604;2023-05-10T01:45:44;15.18;;;10.02;;
76094;SDS011;64821;13.710;100.604;2023-05-10T01:46:55;13.30;;;9.40;;
76094;SDS011;64821;13.710;100.604;2023-05-10T01:48:09;14.32;;;9.40;;
76094;SDS011;64821;13.710;100.604;2023-05-10T01:49:23;15.52;;;10.30;;
76094;SDS011;64821;13.710;100.604;2023-05-10T01:50:29;15.85;;;10.43;;
76094;SDS011;64821;13.710;100.604;2023-05-10T01:51:36;19.85;;;11.20;;
76094;SDS011;64821;13.710;100.604;2023-05-10T01:52:45;18.73;;;11.20;;
76094;SDS011;64821;13.710;100.604;2023-05-10T01:53:56;18.17;;;11.43;;
76094;SDS011;64821;13.710;100.604;2023-05-10T01:55:05;17.45;;;11.95;;
76094;SDS011;64821;13.710;100.604;2023-05-10T01:56:11;18.27;;;11.52;;
76094;SDS011;64821;13.710;100.604;2023-05-10T01:57:17;18.60;;;11.82;;
76094;SDS011;64821;13.710;100.604;2023-05-10T01:58:23;18.77;;;12.23;;
76094;SDS011;64821;13.710;100.604;2023-05-10T01:59:33;17.70;;;12.47;;
76094;SDS011;64821;13.710;100.604;2023-05-10T02:00:40;20.00;;;13.80;;
76094;SDS011;64821;13.710;100.604;2023-05-10T02:01:45;21.15;;;14.15;;
76094;SDS011;64821;13.710;100.604;2023-05-10T02:02:51;25.55;;;16.33;;
76094;SDS011;64821;13.710;100.604;2023-05-10T02:03:57;20.67;;;14.30;;
76094;SDS011;64821;13.710;100.604;2023-05-10T02:05:02;20.30;;;13.20;;
76094;SDS011;64821;13.710;100.604;2023-05-10T02:06:09;19.38;;;12.60;;
76094;SDS011;64821;13.710;100.604;2023-05-10T02:07:15;17.25;;;10.48;;
76094;SDS011;64821;13.710;100.604;2023-05-10T02:08:20;15.95;;;10.43;;
76094;SDS011;64821;13.710;100.604;2023-05-10T02:09:24;18.52;;;11.32;;
76094;SDS011;64821;13.710;100.604;2023-05-10T02:10:30;13.43;;;6.17;;
76094;SDS011;64821;13.710;100.604;2023-05-10T02:11:34;12.93;;;6.97;;
76094;SDS011;64821;13.710;100.604;2023-05-10T02:12:41;11.88;;;6.32;;
76094;SDS011;64821;13.710;100.604;2023-05-10T02:13:46;12.70;;;5.80;;
76094;SDS011;64821;13.710;100.604;2023-05-10T02:14:51;11.23;;;5.80;;
76094;SDS011;64821;13.710;100.604;2023-05-10T02:15:56;11.33;;;4.60;;
76094;SDS011;64821;13.710;100.604;2023-05-10T02:17:01;15.23;;;5.50;;
76094;SDS011;64821;13.710;100.604;2023-05-10T02:18:06;10.98;;;4.95;;
76094;SDS011;64821;13.710;100.604;2023-05-10T02:19:13;10.25;;;5.43;;
76094;SDS011;64821;13.710;100.604;2023-05-10T02:20:18;10.55;;;5.22;;
76094;SDS011;64821;13.710;100.604;2023-05-10T02:21:23;11.23;;;4.43;;
76094;SDS011;64821;13.710;100.604;2023-05-10T02:22:28;11.98;;;4.53;;
76094;SDS011;64821;13.710;100.604;2023-05-10T02:23:32;10.32;;;4.75;;
76094;SDS011;64821;13.710;100.604;2023-05-10T02:24:37;10.85;;;4.50;;
76094;SDS011;64821;13.710;100.604;2023-05-10T02:25:42;12.48;;;5.28;;
76094;SDS011;64821;13.710;100.604;2023-05-10T02:26:47;12.27;;;5.33;;
76094;SDS011;64821;13.710;100.604;2023-05-10T02:27:54;12.32;;;4.75;;
76094;SDS011;64821;13.710;100.604;2023-05-10T02:29:00;10.20;;;4.55;;
76094;SDS011;64821;13.710;100.604;2023-05-10T02:30:05;10.85;;;4.60;;
76094;SDS011;64821;13.710;100.604;2023-05-10T02:31:10;10.68;;;4.10;;
76094;SDS011;64821;13.710;100.604;2023-05-10T02:32:15;9.67;;;3.90;;
76094;SDS011;64821;13.710;100.604;2023-05-10T02:33:20;11.65;;;4.30;;
76094;SDS011;64821;13.710;100.604;2023-05-10T02:34:26;9.90;;;3.83;;
76094;SDS011;64821;13.710;100.604;2023-05-10T02:35:32;9.27;;;3.97;;
76094;SDS011;64821;13.710;100.604;2023-05-10T02:36:37;9.75;;;3.80;;
76094;SDS011;64821;13.710;100.604;2023-05-10T02:37:42;9.00;;;3.63;;
76094;SDS011;64821;13.710;100.604;2023-05-10T02:38:47;8.48;;;3.60;;
76094;SDS011;64821;13.710;100.604;2023-05-10T02:39:54;9.70;;;3.72;;
76094;SDS011;64821;13.710;100.604;2023-05-10T02:40:59;8.77;;;3.60;;
76094;SDS011;64821;13.710;100.604;2023-05-10T02:42:04;8.02;;;3.25;;
76094;SDS011;64821;13.710;100.604;2023-05-10T02:43:09;9.20;;;3.80;;
76094;SDS011;64821;13.710;100.604;2023-05-10T02:44:17;8.32;;;3.30;;
76094;SDS011;64821;13.710;100.604;2023-05-10T02:45:23;8.02;;;3.28;;
76094;SDS011;64821;13.710;100.604;2023-05-10T02:46:31;8.10;;;3.47;;
76094;SDS011;64821;13.710;100.604;2023-05-10T02:47:35;9.55;;;3.65;;
76094;SDS011;64821;13.710;100.604;2023-05-10T02:48:39;8.10;;;3.70;;
76094;SDS011;64821;13.710;100.604;2023-05-10T02:49:44;7.13;;;3.10;;
76094;SDS011;64821;13.710;100.604;2023-05-10T02:50:48;7.80;;;2.65;;
76094;SDS011;64821;13.710;100.604;2023-05-10T02:51:56;7.65;;;3.10;;
76094;SDS011;64821;13.710;100.604;2023-05-10T02:53:06;8.07;;;3.10;;
76094;SDS011;64821;13.710;100.604;2023-05-10T02:54:15;7.87;;;3.00;;
76094;SDS011;64821;13.710;100.604;2023-05-10T02:55:27;10.57;;;3.50;;
76094;SDS011;64821;13.710;100.604;2023-05-10T02:56:40;9.15;;;3.28;;
76094;SDS011;64821;13.710;100.604;2023-05-10T02:57:50;7.13;;;2.83;;
76094;SDS011;64821;13.710;100.604;2023-05-10T02:58:58;7.70;;;3.47;;
76094;SDS011;64821;13.710;100.604;2023-05-10T03:00:02;8.80;;;3.20;;
76094;SDS011;64821;13.710;100.604;2023-05-10T03:01:06;9.30;;;3.28;;
76094;SDS011;64821;13.710;100.604;2023-05-10T03:02:10;7.68;;;3.20;;
76094;SDS011;64821;13.710;100.604;2023-05-10T03:03:15;8.48;;;3.25;;
76094;SDS011;64821;13.710;100.604;2023-05-10T03:04:19;8.18;;;3.22;;
76094;SDS011;64821;13.710;100.604;2023-05-10T03:05:24;7.67;;;3.03;;
76094;SDS011;64821;13.710;100.604;2023-05-10T03:06:28;6.47;;;2.88;;
76094;SDS011;64821;13.710;100.604;2023-05-10T03:07:32;8.73;;;3.15;;
76094;SDS011;64821;13.710;100.604;2023-05-10T03:08:36;9.05;;;3.05;;
76094;SDS011;64821;13.710;100.604;2023-05-10T03:09:40;7.97;;;2.90;;
76094;SDS011;64821;13.710;100.604;2023-05-10T03:10:47;8.17;;;3.30;;
76094;SDS011;64821;13.710;100.604;2023-05-10T03:12:00;7.88;;;3.15;;
76094;SDS011;64821;13.710;100.604;2023-05-10T03:13:10;9.15;;;3.67;;
76094;SDS011;64821;13.710;100.604;2023-05-10T03:14:21;8.43;;;3.60;;
76094;SDS011;64821;13.710;100.604;2023-05-10T03:15:52;8.80;;;3.78;;
76094;SDS011;64821;13.710;100.604;2023-05-10T03:17:04;8.93;;;3.50;;
76094;SDS011;64821;13.710;100.604;2023-05-10T03:18:13;8.15;;;3.53;;
76094;SDS011;64821;13.710;100.604;2023-05-10T03:19:22;11.55;;;4.00;;
76094;SDS011;64821;13.710;100.604;2023-05-10T03:20:35;10.85;;;3.80;;
76094;SDS011;64821;13.710;100.604;2023-05-10T03:21:44;7.90;;;3.65;;
76094;SDS011;64821;13.710;100.604;2023-05-10T03:22:54;8.73;;;3.70;;
76094;SDS011;64821;13.710;100.604;2023-05-10T03:24:04;7.82;;;3.47;;
76094;SDS011;64821;13.710;100.604;2023-05-10T03:25:10;8.05;;;3.50;;
76094;SDS011;64821;13.710;100.604;2023-05-10T03:26:15;7.72;;;3.88;;
76094;SDS011;64821;13.710;100.604;2023-05-10T03:27:23;7.50;;;3.35;;
76094;SDS011;64821;13.710;100.604;2023-05-10T03:28:28;8.30;;;3.20;;
76094;SDS011;64821;13.710;100.604;2023-05-10T03:29:34;7.05;;;3.22;;
76094;SDS011;64821;13.710;100.604;2023-05-10T03:30:38;7.65;;;3.30;;
76094;SDS011;64821;13.710;100.604;2023-05-10T03:31:43;9.00;;;3.38;;
76094;SDS011;64821;13.710;100.604;2023-05-10T03:32:47;8.35;;;3.50;;
76094;SDS011;64821;13.710;100.604;2023-05-10T03:33:51;8.43;;;3.50;;
76094;SDS011;64821;13.710;100.604;2023-05-10T03:34:55;10.13;;;3.70;;
76094;SDS011;64821;13.710;100.604;2023-05-10T03:36:00;8.43;;;3.42;;
76094;SDS011;64821;13.710;100.604;2023-05-10T03:37:04;8.02;;;3.10;;
76094;SDS011;64821;13.710;100.604;2023-05-10T03:38:08;8.20;;;3.15;;
76094;SDS011;64821;13.710;100.604;2023-05-10T03:39:11;6.80;;;2.83;;
76094;SDS011;64821;13.710;100.604;2023-05-10T03:40:15;7.85;;;3.65;;
76094;SDS011;64821;13.710;100.604;2023-05-10T03:41:19;8.30;;;3.10;;
76094;SDS011;64821;13.710;100.604;2023-05-10T03:42:23;7.60;;;2.97;;
76094;SDS011;64821;13.710;100.604;2023-05-10T03:43:27;7.30;;;3.28;;
76094;SDS011;64821;13.710;100.604;2023-05-10T03:44:30;7.30;;;3.33;;
76094;SDS011;64821;13.710;100.604;2023-05-10T03:45:34;8.88;;;3.65;;
76094;SDS011;64821;13.710;100.604;2023-05-10T03:46:38;10.48;;;3.63;;
76094;SDS011;64821;13.710;100.604;2023-05-10T03:47:42;10.27;;;3.58;;
76094;SDS011;64821;13.710;100.604;2023-05-10T03:48:46;7.70;;;3.20;;
76094;SDS011;64821;13.710;100.604;2023-05-10T03:49:49;8.10;;;3.17;;
76094;SDS011;64821;13.710;100.604;2023-05-10T03:50:53;7.95;;;3.53;;
76094;SDS011;64821;13.710;100.604;2023-05-10T03:51:58;7.85;;;3.67;;
76094;SDS011;64821;13.710;100.604;2023-05-10T03:53:02;7.95;;;3.33;;
76094;SDS011;64821;13.710;100.604;2023-05-10T03:54:06;9.70;;;3.90;;
76094;SDS011;64821;13.710;100.604;2023-05-10T03:55:10;9.10;;;3.87;;
76094;SDS011;64821;13.710;100.604;2023-05-10T03:56:14;8.88;;;3.60;;
76094;SDS011;64821;13.710;100.604;2023-05-10T03:57:17;7.93;;;3.80;;
76094;SDS011;64821;13.710;100.604;2023-05-10T03:58:21;8.02;;;4.10;;
76094;SDS011;64821;13.710;100.604;2023-05-10T03:59:25;7.95;;;3.53;;
76094;SDS011;64821;13.710;100.604;2023-05-10T04:00:29;9.77;;;3.77;;
76094;SDS011;64821;13.710;100.604;2023-05-10T04:01:32;9.57;;;3.95;;
76094;SDS011;64821;13.710;100.604;2023-05-10T04:02:36;10.05;;;4.10;;
76094;SDS011;64821;13.710;100.604;2023-05-10T04:03:41;9.55;;;4.30;;
76094;SDS011;64821;13.710;100.604;2023-05-10T04:04:44;10.88;;;4.00;;
76094;SDS011;64821;13.710;100.604;2023-05-10T04:05:48;8.90;;;4.00;;
76094;SDS011;64821;13.710;100.604;2023-05-10T04:07:02;8.63;;;3.90;;
76094;SDS011;64821;13.710;100.604;2023-05-10T04:08:06;9.23;;;4.60;;
76094;SDS011;64821;13.710;100.604;2023-05-10T04:09:10;8.40;;;4.30;;
76094;SDS011;64821;13.710;100.604;2023-05-10T04:10:13;8.27;;;4.07;;
76094;SDS011;64821;13.710;100.604;2023-05-10T04:11:18;8.40;;;3.50;;
76094;SDS011;64821;13.710;100.604;2023-05-10T04:12:22;8.35;;;3.90;;
76094;SDS011;64821;13.710;100.604;2023-05-10T04:13:25;9.32;;;4.10;;
76094;SDS011;64821;13.710;100.604;2023-05-10T04:14:29;9.25;;;4.57;;
76094;SDS011;64821;13.710;100.604;2023-05-10T04:15:33;8.35;;;4.13;;
76094;SDS011;64821;13.710;100.604;2023-05-10T04:16:37;9.60;;;3.53;;
76094;SDS011;64821;13.710;100.604;2023-05-10T04:17:41;9.95;;;4.25;;
76094;SDS011;64821;13.710;100.604;2023-05-10T04:18:44;8.63;;;3.70;;
76094;SDS011;64821;13.710;100.604;2023-05-10T04:19:48;9.07;;;4.22;;
76094;SDS011;64821;13.710;100.604;2023-05-10T04:20:52;8.00;;;3.78;;
76094;SDS011;64821;13.710;100.604;2023-05-10T04:21:55;10.27;;;4.00;;
76094;SDS011;64821;13.710;100.604;2023-05-10T04:23:01;8.93;;;3.85;;
76094;SDS011;64821;13.710;100.604;2023-05-10T04:24:05;8.73;;;4.30;;
76094;SDS011;64821;13.710;100.604;2023-05-10T04:25:09;9.60;;;4.30;;
76094;SDS011;64821;13.710;100.604;2023-05-10T04:26:13;10.18;;;4.25;;
76094;SDS011;64821;13.710;100.604;2023-05-10T04:27:16;8.37;;;3.90;;
76094;SDS011;64821;13.710;100.604;2023-05-10T04:28:20;8.98;;;4.50;;
76094;SDS011;64821;13.710;100.604;2023-05-10T04:29:24;9.32;;;4.30;;
76094;SDS011;64821;13.710;100.604;2023-05-10T04:30:28;10.02;;;5.05;;
76094;SDS011;64821;13.710;100.604;2023-05-10T04:31:31;9.70;;;4.40;;
76094;SDS011;64821;13.710;100.604;2023-05-10T04:32:35;10.63;;;5.13;;
76094;SDS011;64821;13.710;100.604;2023-05-10T04:33:39;8.77;;;4.97;;
76094;SDS011;64821;13.710;100.604;2023-05-10T04:34:43;10.20;;;5.07;;
76094;SDS011;64821;13.710;100.604;2023-05-10T04:35:46;10.48;;;5.03;;
76094;SDS011;64821;13.710;100.604;2023-05-10T04:36:50;9.57;;;4.90;;
76094;SDS011;64821;13.710;100.604;2023-05-10T04:37:54;9.67;;;5.60;;
76094;SDS011;64821;13.710;100.604;2023-05-10T04:38:59;11.18;;;5.40;;
76094;SDS011;64821;13.710;100.604;2023-05-10T04:40:03;9.73;;;5.43;;
76094;SDS011;64821;13.710;100.604;2023-05-10T04:41:08;11.10;;;5.63;;
76094;SDS011;64821;13.710;100.604;2023-05-10T04:42:12;10.52;;;5.20;;
76094;SDS011;64821;13.710;100.604;2023-05-10T04:43:16;9.87;;;5.20;;
76094;SDS011;64821;13.710;100.604;2023-05-10T04:44:20;10.13;;;5.57;;
76094;SDS011;64821;13.710;100.604;2023-05-10T04:45:24;12.32;;;5.72;;
76094;SDS011;64821;13.710;100.604;2023-05-10T04:46:27;9.88;;;5.68;;
76094;SDS011;64821;13.710;100.604;2023-05-10T04:47:31;10.38;;;5.40;;
76094;SDS011;64821;13.710;100.604;2023-05-10T04:48:35;11.03;;;5.67;;
76094;SDS011;64821;13.710;100.604;2023-05-10T04:49:38;11.15;;;5.78;;
76094;SDS011;64821;13.710;100.604;2023-05-10T04:50:42;10.25;;;5.60;;
76094;SDS011;64821;13.710;100.604;2023-05-10T04:51:46;10.90;;;5.72;;
76094;SDS011;64821;13.710;100.604;2023-05-10T04:52:49;11.52;;;5.43;;
76094;SDS011;64821;13.710;100.604;2023-05-10T04:53:54;12.03;;;6.70;;
76094;SDS011;64821;13.710;100.604;2023-05-10T04:55:08;12.55;;;6.80;;
76094;SDS011;64821;13.710;100.604;2023-05-10T04:56:12;11.15;;;6.38;;
76094;SDS011;64821;13.710;100.604;2023-05-10T04:57:16;13.63;;;6.47;;
76094;SDS011;64821;13.710;100.604;2023-05-10T04:58:20;12.30;;;6.28;;
76094;SDS011;64821;13.710;100.604;2023-05-10T04:59:23;10.70;;;5.70;;
76094;SDS011;64821;13.710;100.604;2023-05-10T05:00:28;11.95;;;6.35;;
76094;SDS011;64821;13.710;100.604;2023-05-10T05:01:31;11.82;;;6.22;;
76094;SDS011;64821;13.710;100.604;2023-05-10T05:02:35;10.35;;;6.07;;
76094;SDS011;64821;13.710;100.604;2023-05-10T05:03:39;12.57;;;6.80;;
76094;SDS011;64821;13.710;100.604;2023-05-10T05:04:43;11.80;;;6.87;;
76094;SDS011;64821;13.710;100.604;2023-05-10T05:05:47;11.20;;;7.15;;
76094;SDS011;64821;13.710;100.604;2023-05-10T05:06:50;11.70;;;6.90;;
76094;SDS011;64821;13.710;100.604;2023-05-10T05:07:54;16.23;;;7.47;;
76094;SDS011;64821;13.710;100.604;2023-05-10T05:08:58;11.65;;;6.30;;
76094;SDS011;64821;13.710;100.604;2023-05-10T05:10:02;12.20;;;6.60;;
76094;SDS011;64821;13.710;100.604;2023-05-10T05:11:08;12.25;;;6.55;;
76094;SDS011;64821;13.710;100.604;2023-05-10T05:12:11;14.85;;;7.75;;
76094;SDS011;64821;13.710;100.604;2023-05-10T05:13:15;12.93;;;7.20;;
76094;SDS011;64821;13.710;100.604;2023-05-10T05:14:19;12.02;;;7.03;;
76094;SDS011;64821;13.710;100.604;2023-05-10T05:15:23;10.77;;;7.00;;
76094;SDS011;64821;13.710;100.604;2023-05-10T05:16:27;12.68;;;6.45;;
76094;SDS011;64821;13.710;100.604;2023-05-10T05:17:32;12.05;;;7.25;;
76094;SDS011;64821;13.710;100.604;2023-05-10T05:18:36;12.77;;;6.85;;
76094;SDS011;64821;13.710;100.604;2023-05-10T05:19:40;12.13;;;7.35;;
76094;SDS011;64821;13.710;100.604;2023-05-10T05:20:44;13.13;;;6.93;;
76094;SDS011;64821;13.710;100.604;2023-05-10T05:21:47;12.35;;;6.47;;
76094;SDS011;64821;13.710;100.604;2023-05-10T05:22:51;13.75;;;8.07;;
76094;SDS011;64821;13.710;100.604;2023-05-10T05:23:55;13.70;;;7.65;;
76094;SDS011;64821;13.710;100.604;2023-05-10T05:24:59;11.10;;;6.70;;
76094;SDS011;64821;13.710;100.604;2023-05-10T05:26:02;12.00;;;6.40;;
76094;SDS011;64821;13.710;100.604;2023-05-10T05:27:08;11.60;;;6.72;;
76094;SDS011;64821;13.710;100.604;2023-05-10T05:28:11;11.43;;;5.82;;
76094;SDS011;64821;13.710;100.604;2023-05-10T05:29:15;10.20;;;5.45;;
76094;SDS011;64821;13.710;100.604;2023-05-10T05:30:19;11.70;;;6.38;;
76094;SDS011;64821;13.710;100.604;2023-05-10T05:31:22;12.30;;;6.30;;
76094;SDS011;64821;13.710;100.604;2023-05-10T05:32:26;11.25;;;6.00;;
76094;SDS011;64821;13.710;100.604;2023-05-10T05:33:30;10.50;;;5.55;;
76094;SDS011;64821;13.710;100.604;2023-05-10T05:34:34;12.02;;;6.07;;
76094;SDS011;64821;13.710;100.604;2023-05-10T05:35:37;11.68;;;5.72;;
76094;SDS011;64821;13.710;100.604;2023-05-10T05:36:41;11.37;;;7.00;;
76094;SDS011;64821;13.710;100.604;2023-05-10T05:37:45;12.57;;;6.82;;
76094;SDS011;64821;13.710;100.604;2023-05-10T05:38:48;10.77;;;6.07;;
76094;SDS011;64821;13.710;100.604;2023-05-10T05:39:52;11.68;;;6.82;;
76094;SDS011;64821;13.710;100.604;2023-05-10T05:40:56;11.90;;;6.68;;
76094;SDS011;64821;13.710;100.604;2023-05-10T05:42:00;11.90;;;6.33;;
76094;SDS011;64821;13.710;100.604;2023-05-10T05:43:05;11.82;;;6.60;;
76094;SDS011;64821;13.710;100.604;2023-05-10T05:44:09;12.27;;;6.60;;
76094;SDS011;64821;13.710;100.604;2023-05-10T05:45:12;11.25;;;6.75;;
76094;SDS011;64821;13.710;100.604;2023-05-10T05:46:17;11.63;;;6.70;;
76094;SDS011;64821;13.710;100.604;2023-05-10T05:47:20;11.27;;;6.53;;
76094;SDS011;64821;13.710;100.604;2023-05-10T05:48:24;13.55;;;6.22;;
76094;SDS011;64821;13.710;100.604;2023-05-10T05:49:28;12.60;;;6.80;;
76094;SDS011;64821;13.710;100.604;2023-05-10T05:50:32;12.85;;;7.82;;
76094;SDS011;64821;13.710;100.604;2023-05-10T05:51:36;11.70;;;6.88;;
76094;SDS011;64821;13.710;100.604;2023-05-10T05:52:39;12.00;;;7.40;;
76094;SDS011;64821;13.710;100.604;2023-05-10T05:53:43;12.95;;;6.80;;
76094;SDS011;64821;13.710;100.604;2023-05-10T05:54:47;13.43;;;6.78;;
76094;SDS011;64821;13.710;100.604;2023-05-10T05:55:51;13.10;;;6.85;;
76094;SDS011;64821;13.710;100.604;2023-05-10T05:56:55;13.98;;;7.22;;
76094;SDS011;64821;13.710;100.604;2023-05-10T05:58:01;14.03;;;8.80;;
76094;SDS011;64821;13.710;100.604;2023-05-10T05:59:07;16.23;;;7.80;;
76094;SDS011;64821;13.710;100.604;2023-05-10T06:00:11;13.10;;;7.93;;
76094;SDS011;64821;13.710;100.604;2023-05-10T06:01:15;13.40;;;8.05;;
76094;SDS011;64821;13.710;100.604;2023-05-10T06:02:19;13.90;;;7.60;;
76094;SDS011;64821;13.710;100.604;2023-05-10T06:03:27;13.47;;;7.37;;
76094;SDS011;64821;13.710;100.604;2023-05-10T06:04:31;13.45;;;8.50;;
76094;SDS011;64821;13.710;100.604;2023-05-10T06:05:34;14.85;;;8.30;;
76094;SDS011;64821;13.710;100.604;2023-05-10T06:06:38;13.18;;;8.32;;
76094;SDS011;64821;13.710;100.604;2023-05-10T06:07:42;13.07;;;7.63;;
76094;SDS011;64821;13.710;100.604;2023-05-10T06:08:46;13.23;;;8.17;;
76094;SDS011;64821;13.710;100.604;2023-05-10T06:09:49;15.15;;;9.60;;
76094;SDS011;64821;13.710;100.604;2023-05-10T06:10:53;16.30;;;9.07;;
76094;SDS011;64821;13.710;100.604;2023-05-10T06:11:56;13.27;;;8.32;;
76094;SDS011;64821;13.710;100.604;2023-05-10T06:13:00;17.83;;;10.77;;
76094;SDS011;64821;13.710;100.604;2023-05-10T06:14:04;17.03;;;12.03;;
76094;SDS011;64821;13.710;100.604;2023-05-10T06:15:10;15.70;;;10.05;;
76094;SDS011;64821;13.710;100.604;2023-05-10T06:16:14;14.77;;;9.70;;
76094;SDS011;64821;13.710;100.604;2023-05-10T06:17:18;17.83;;;11.98;;
76094;SDS011;64821;13.710;100.604;2023-05-10T06:18:22;16.25;;;11.63;;
76094;SDS011;64821;13.710;100.604;2023-05-10T06:19:25;16.43;;;11.40;;
76094;SDS011;64821;13.710;100.604;2023-05-10T06:20:29;14.35;;;10.75;;